sensor_id;sensor_type;location;lat;lon;timestamp;P1;durP1;ratioP1;P2;durP2;ratioP2
8861;SDS011;4799;50.996;4.754;2022-09-09T00:02:19;5.43;;;3.00;;
8861;SDS011;4799;50.996;4.754;2022-09-09T00:05:12;5.67;;;3.10;;
8861;SDS011;4799;50.996;4.754;2022-09-09T00:07:48;5.10;;;3.20;;
8861;SDS011;4799;50.996;4.754;2022-09-09T00:10:34;5.37;;;3.20;;
8861;SDS011;4799;50.996;4.754;2022-09-09T00:15:57;5.93;;;3.30;;
8861;SDS011;4799;50.996;4.754;2022-09-09T00:21:11;8.77;;;3.43;;
8861;SDS011;4799;50.996;4.754;2022-09-09T00:23:52;7.03;;;3.60;;
8861;SDS011;4799;50.996;4.754;2022-09-09T00:26:31;6.47;;;3.10;;
8861;SDS011;4799;50.996;4.754;2022-09-09T00:31:55;7.23;;;3.30;;
8861;SDS011;4799;50.996;4.754;2022-09-09T00:34:24;6.80;;;2.97;;
8861;SDS011;4799;50.996;4.754;2022-09-09T00:36:52;7.13;;;3.57;;
8861;SDS011;4799;50.996;4.754;2022-09-09T00:39:42;5.43;;;3.30;;
8861;SDS011;4799;50.996;4.754;2022-09-09T00:42:15;7.37;;;3.50;;
8861;SDS011;4799;50.996;4.754;2022-09-09T00:50:05;7.07;;;3.10;;
8861;SDS011;4799;50.996;4.754;2022-09-09T00:58:00;7.20;;;4.43;;
8861;SDS011;4799;50.996;4.754;2022-09-09T01:00:30;6.43;;;3.53;;
8861;SDS011;4799;50.996;4.754;2022-09-09T01:03:25;7.13;;;3.40;;
8861;SDS011;4799;50.996;4.754;2022-09-09T01:11:26;9.57;;;3.53;;
8861;SDS011;4799;50.996;4.754;2022-09-09T01:14:44;7.60;;;3.63;;
8861;SDS011;4799;50.996;4.754;2022-09-09T01:16:56;8.57;;;3.90;;
8861;SDS011;4799;50.996;4.754;2022-09-09T01:22:09;7.50;;;3.40;;
8861;SDS011;4799;50.996;4.754;2022-09-09T01:27:39;7.50;;;3.30;;
8861;SDS011;4799;50.996;4.754;2022-09-09T01:30:12;3.93;;;2.80;;
8861;SDS011;4799;50.996;4.754;2022-09-09T01:32:42;6.73;;;3.50;;
8861;SDS011;4799;50.996;4.754;2022-09-09T01:37:42;5.87;;;3.30;;
8861;SDS011;4799;50.996;4.754;2022-09-09T01:40:07;8.30;;;3.30;;
8861;SDS011;4799;50.996;4.754;2022-09-09T01:42:33;10.87;;;3.13;;
8861;SDS011;4799;50.996;4.754;2022-09-09T01:44:59;7.60;;;3.80;;
8861;SDS011;4799;50.996;4.754;2022-09-09T01:47:25;6.67;;;3.73;;
8861;SDS011;4799;50.996;4.754;2022-09-09T01:49:50;7.33;;;3.63;;
8861;SDS011;4799;50.996;4.754;2022-09-09T01:52:16;6.07;;;3.60;;
8861;SDS011;4799;50.996;4.754;2022-09-09T01:54:42;7.63;;;3.47;;
8861;SDS011;4799;50.996;4.754;2022-09-09T01:57:15;6.43;;;3.40;;
8861;SDS011;4799;50.996;4.754;2022-09-09T02:00:12;9.77;;;3.70;;
8861;SDS011;4799;50.996;4.754;2022-09-09T02:10:56;6.90;;;3.73;;
8861;SDS011;4799;50.996;4.754;2022-09-09T02:13:30;7.40;;;3.70;;
8861;SDS011;4799;50.996;4.754;2022-09-09T02:16:13;7.60;;;3.10;;
8861;SDS011;4799;50.996;4.754;2022-09-09T02:18:54;6.27;;;3.80;;
8861;SDS011;4799;50.996;4.754;2022-09-09T02:21:26;7.50;;;3.80;;
8861;SDS011;4799;50.996;4.754;2022-09-09T02:23:54;7.07;;;3.63;;
8861;SDS011;4799;50.996;4.754;2022-09-09T02:26:24;11.30;;;3.90;;
8861;SDS011;4799;50.996;4.754;2022-09-09T02:28:52;7.43;;;3.53;;
8861;SDS011;4799;50.996;4.754;2022-09-09T02:31:22;8.23;;;3.80;;
8861;SDS011;4799;50.996;4.754;2022-09-09T02:33:56;8.37;;;3.97;;
8861;SDS011;4799;50.996;4.754;2022-09-09T02:36:26;9.13;;;4.20;;
8861;SDS011;4799;50.996;4.754;2022-09-09T02:38:54;8.33;;;3.80;;
8861;SDS011;4799;50.996;4.754;2022-09-09T02:41:24;6.90;;;3.70;;
8861;SDS011;4799;50.996;4.754;2022-09-09T02:43:55;8.97;;;3.97;;
8861;SDS011;4799;50.996;4.754;2022-09-09T02:49:10;9.20;;;4.43;;
8861;SDS011;4799;50.996;4.754;2022-09-09T02:51:52;9.70;;;4.10;;
8861;SDS011;4799;50.996;4.754;2022-09-09T02:54:29;9.00;;;4.43;;
8861;SDS011;4799;50.996;4.754;2022-09-09T02:57:04;7.43;;;4.00;;
8861;SDS011;4799;50.996;4.754;2022-09-09T02:59:35;10.47;;;4.10;;
8861;SDS011;4799;50.996;4.754;2022-09-09T03:02:01;6.90;;;3.57;;
8861;SDS011;4799;50.996;4.754;2022-09-09T03:04:28;7.67;;;3.80;;
8861;SDS011;4799;50.996;4.754;2022-09-09T03:06:55;8.83;;;4.10;;
8861;SDS011;4799;50.996;4.754;2022-09-09T03:09:21;9.40;;;3.83;;
8861;SDS011;4799;50.996;4.754;2022-09-09T03:11:46;8.90;;;3.80;;
8861;SDS011;4799;50.996;4.754;2022-09-09T03:14:12;8.70;;;4.20;;
8861;SDS011;4799;50.996;4.754;2022-09-09T03:16:38;8.27;;;4.07;;
8861;SDS011;4799;50.996;4.754;2022-09-09T03:19:04;10.97;;;4.23;;
8861;SDS011;4799;50.996;4.754;2022-09-09T03:21:29;11.40;;;4.07;;
8861;SDS011;4799;50.996;4.754;2022-09-09T03:23:55;12.17;;;4.60;;
8861;SDS011;4799;50.996;4.754;2022-09-09T03:26:22;9.97;;;4.03;;
8861;SDS011;4799;50.996;4.754;2022-09-09T03:28:48;12.33;;;4.57;;
8861;SDS011;4799;50.996;4.754;2022-09-09T03:31:16;10.47;;;3.90;;
8861;SDS011;4799;50.996;4.754;2022-09-09T03:33:44;7.87;;;3.93;;
8861;SDS011;4799;50.996;4.754;2022-09-09T03:36:10;9.63;;;3.70;;
8861;SDS011;4799;50.996;4.754;2022-09-09T03:38:35;8.73;;;3.70;;
8861;SDS011;4799;50.996;4.754;2022-09-09T03:41:01;8.50;;;4.43;;
8861;SDS011;4799;50.996;4.754;2022-09-09T03:43:27;13.37;;;4.50;;
8861;SDS011;4799;50.996;4.754;2022-09-09T03:45:54;7.43;;;3.63;;
8861;SDS011;4799;50.996;4.754;2022-09-09T03:48:22;12.60;;;4.30;;
8861;SDS011;4799;50.996;4.754;2022-09-09T03:50:49;11.53;;;4.37;;
8861;SDS011;4799;50.996;4.754;2022-09-09T03:53:17;9.23;;;3.57;;
8861;SDS011;4799;50.996;4.754;2022-09-09T03:55:47;10.10;;;3.80;;
8861;SDS011;4799;50.996;4.754;2022-09-09T03:58:15;10.13;;;4.37;;
8861;SDS011;4799;50.996;4.754;2022-09-09T04:00:43;10.80;;;4.37;;
8861;SDS011;4799;50.996;4.754;2022-09-09T04:03:18;8.27;;;4.13;;
8861;SDS011;4799;50.996;4.754;2022-09-09T04:05:44;6.60;;;3.70;;
8861;SDS011;4799;50.996;4.754;2022-09-09T04:08:09;11.40;;;4.40;;
8861;SDS011;4799;50.996;4.754;2022-09-09T04:10:36;10.83;;;4.10;;
8861;SDS011;4799;50.996;4.754;2022-09-09T04:13:03;12.00;;;4.60;;
8861;SDS011;4799;50.996;4.754;2022-09-09T04:15:30;10.93;;;4.33;;
8861;SDS011;4799;50.996;4.754;2022-09-09T04:17:56;11.73;;;4.77;;
8861;SDS011;4799;50.996;4.754;2022-09-09T04:20:22;10.93;;;4.30;;
8861;SDS011;4799;50.996;4.754;2022-09-09T04:22:48;10.67;;;4.40;;
8861;SDS011;4799;50.996;4.754;2022-09-09T04:25:13;8.60;;;4.40;;
8861;SDS011;4799;50.996;4.754;2022-09-09T04:27:39;11.93;;;4.83;;
8861;SDS011;4799;50.996;4.754;2022-09-09T04:30:06;10.03;;;4.27;;
8861;SDS011;4799;50.996;4.754;2022-09-09T04:32:35;9.77;;;4.30;;
8861;SDS011;4799;50.996;4.754;2022-09-09T04:35:02;13.90;;;4.73;;
8861;SDS011;4799;50.996;4.754;2022-09-09T04:37:28;9.93;;;3.90;;
8861;SDS011;4799;50.996;4.754;2022-09-09T04:39:54;6.90;;;3.80;;
8861;SDS011;4799;50.996;4.754;2022-09-09T04:42:19;12.63;;;4.70;;
8861;SDS011;4799;50.996;4.754;2022-09-09T04:44:45;9.13;;;4.40;;
8861;SDS011;4799;50.996;4.754;2022-09-09T04:47:11;9.90;;;4.70;;
8861;SDS011;4799;50.996;4.754;2022-09-09T04:49:36;7.63;;;4.07;;
8861;SDS011;4799;50.996;4.754;2022-09-09T04:52:03;7.57;;;4.40;;
8861;SDS011;4799;50.996;4.754;2022-09-09T04:54:29;9.87;;;4.33;;
8861;SDS011;4799;50.996;4.754;2022-09-09T04:56:55;10.50;;;4.50;;
8861;SDS011;4799;50.996;4.754;2022-09-09T04:59:21;8.10;;;4.43;;
8861;SDS011;4799;50.996;4.754;2022-09-09T05:01:47;12.90;;;5.00;;
8861;SDS011;4799;50.996;4.754;2022-09-09T05:04:14;8.77;;;4.53;;
8861;SDS011;4799;50.996;4.754;2022-09-09T05:06:41;13.07;;;4.50;;
8861;SDS011;4799;50.996;4.754;2022-09-09T05:09:07;10.83;;;4.30;;
8861;SDS011;4799;50.996;4.754;2022-09-09T05:11:33;13.07;;;4.70;;
8861;SDS011;4799;50.996;4.754;2022-09-09T05:14:03;12.00;;;4.80;;
8861;SDS011;4799;50.996;4.754;2022-09-09T05:16:29;8.63;;;4.70;;
8861;SDS011;4799;50.996;4.754;2022-09-09T05:18:56;12.33;;;5.43;;
8861;SDS011;4799;50.996;4.754;2022-09-09T05:21:23;8.87;;;4.70;;
8861;SDS011;4799;50.996;4.754;2022-09-09T05:23:53;9.87;;;5.23;;
8861;SDS011;4799;50.996;4.754;2022-09-09T05:26:20;13.00;;;5.30;;
8861;SDS011;4799;50.996;4.754;2022-09-09T05:28:46;12.40;;;5.20;;
8861;SDS011;4799;50.996;4.754;2022-09-09T05:31:13;11.73;;;5.30;;
8861;SDS011;4799;50.996;4.754;2022-09-09T05:33:41;12.20;;;5.43;;
8861;SDS011;4799;50.996;4.754;2022-09-09T05:36:09;9.13;;;5.07;;
8861;SDS011;4799;50.996;4.754;2022-09-09T05:38:38;11.13;;;5.17;;
8861;SDS011;4799;50.996;4.754;2022-09-09T05:41:05;12.43;;;5.47;;
8861;SDS011;4799;50.996;4.754;2022-09-09T05:43:32;10.87;;;5.03;;
8861;SDS011;4799;50.996;4.754;2022-09-09T05:46:08;11.67;;;5.27;;
8861;SDS011;4799;50.996;4.754;2022-09-09T05:48:39;11.13;;;5.07;;
8861;SDS011;4799;50.996;4.754;2022-09-09T05:51:07;9.93;;;4.57;;
8861;SDS011;4799;50.996;4.754;2022-09-09T05:53:36;10.20;;;4.33;;
8861;SDS011;4799;50.996;4.754;2022-09-09T05:56:07;13.13;;;4.60;;
8861;SDS011;4799;50.996;4.754;2022-09-09T05:58:39;11.17;;;4.03;;
8861;SDS011;4799;50.996;4.754;2022-09-09T06:01:06;8.70;;;3.80;;
8861;SDS011;4799;50.996;4.754;2022-09-09T06:03:33;10.83;;;3.77;;
8861;SDS011;4799;50.996;4.754;2022-09-09T06:06:00;8.40;;;3.80;;
8861;SDS011;4799;50.996;4.754;2022-09-09T06:08:30;11.67;;;4.17;;
8861;SDS011;4799;50.996;4.754;2022-09-09T06:11:00;11.83;;;3.77;;
8861;SDS011;4799;50.996;4.754;2022-09-09T06:13:30;11.20;;;3.37;;
8861;SDS011;4799;50.996;4.754;2022-09-09T06:15:56;11.03;;;3.63;;
8861;SDS011;4799;50.996;4.754;2022-09-09T06:18:26;8.60;;;3.40;;
8861;SDS011;4799;50.996;4.754;2022-09-09T06:21:02;7.53;;;3.07;;
8861;SDS011;4799;50.996;4.754;2022-09-09T06:23:29;11.60;;;3.60;;
8861;SDS011;4799;50.996;4.754;2022-09-09T06:26:02;7.90;;;3.23;;
8861;SDS011;4799;50.996;4.754;2022-09-09T06:28:30;8.03;;;3.13;;
8861;SDS011;4799;50.996;4.754;2022-09-09T06:30:58;7.37;;;3.20;;
8861;SDS011;4799;50.996;4.754;2022-09-09T06:33:24;8.00;;;3.20;;
8861;SDS011;4799;50.996;4.754;2022-09-09T06:35:51;9.57;;;2.80;;
8861;SDS011;4799;50.996;4.754;2022-09-09T06:38:18;8.17;;;2.70;;
8861;SDS011;4799;50.996;4.754;2022-09-09T06:40:50;9.40;;;3.10;;
8861;SDS011;4799;50.996;4.754;2022-09-09T06:43:23;7.77;;;3.17;;
8861;SDS011;4799;50.996;4.754;2022-09-09T06:46:23;8.40;;;2.67;;
8861;SDS011;4799;50.996;4.754;2022-09-09T06:48:42;12.37;;;3.43;;
8861;SDS011;4799;50.996;4.754;2022-09-09T06:51:16;9.57;;;2.63;;
8861;SDS011;4799;50.996;4.754;2022-09-09T06:53:44;6.77;;;2.87;;
8861;SDS011;4799;50.996;4.754;2022-09-09T06:58:40;7.43;;;2.60;;
8861;SDS011;4799;50.996;4.754;2022-09-09T07:01:15;7.30;;;2.80;;
8861;SDS011;4799;50.996;4.754;2022-09-09T07:03:45;6.33;;;2.63;;
8861;SDS011;4799;50.996;4.754;2022-09-09T07:06:34;6.47;;;2.50;;
8861;SDS011;4799;50.996;4.754;2022-09-09T07:09:02;8.63;;;2.97;;
8861;SDS011;4799;50.996;4.754;2022-09-09T07:11:34;8.33;;;2.60;;
8861;SDS011;4799;50.996;4.754;2022-09-09T07:14:07;9.90;;;2.93;;
8861;SDS011;4799;50.996;4.754;2022-09-09T07:16:33;7.00;;;2.50;;
8861;SDS011;4799;50.996;4.754;2022-09-09T07:19:02;5.77;;;2.47;;
8861;SDS011;4799;50.996;4.754;2022-09-09T07:21:29;5.67;;;2.47;;
8861;SDS011;4799;50.996;4.754;2022-09-09T07:23:56;6.60;;;2.40;;
8861;SDS011;4799;50.996;4.754;2022-09-09T07:26:23;11.07;;;3.20;;
8861;SDS011;4799;50.996;4.754;2022-09-09T07:28:51;7.67;;;2.63;;
8861;SDS011;4799;50.996;4.754;2022-09-09T07:31:18;9.20;;;2.90;;
8861;SDS011;4799;50.996;4.754;2022-09-09T07:33:45;7.87;;;2.80;;
8861;SDS011;4799;50.996;4.754;2022-09-09T07:36:13;5.87;;;2.50;;
8861;SDS011;4799;50.996;4.754;2022-09-09T07:38:45;7.13;;;2.57;;
8861;SDS011;4799;50.996;4.754;2022-09-09T07:41:14;6.90;;;2.50;;
8861;SDS011;4799;50.996;4.754;2022-09-09T07:43:42;7.73;;;2.63;;
8861;SDS011;4799;50.996;4.754;2022-09-09T07:46:10;6.73;;;2.60;;
8861;SDS011;4799;50.996;4.754;2022-09-09T07:48:38;7.90;;;2.33;;
8861;SDS011;4799;50.996;4.754;2022-09-09T07:51:12;6.47;;;2.43;;
8861;SDS011;4799;50.996;4.754;2022-09-09T07:53:43;8.83;;;2.70;;
8861;SDS011;4799;50.996;4.754;2022-09-09T07:56:10;7.80;;;2.53;;
8861;SDS011;4799;50.996;4.754;2022-09-09T07:58:38;8.70;;;2.23;;
8861;SDS011;4799;50.996;4.754;2022-09-09T08:01:06;7.17;;;2.73;;
8861;SDS011;4799;50.996;4.754;2022-09-09T08:03:36;6.83;;;2.50;;
8861;SDS011;4799;50.996;4.754;2022-09-09T08:06:03;9.00;;;2.47;;
8861;SDS011;4799;50.996;4.754;2022-09-09T08:08:32;4.90;;;2.23;;
8861;SDS011;4799;50.996;4.754;2022-09-09T08:11:06;4.90;;;2.30;;
8861;SDS011;4799;50.996;4.754;2022-09-09T08:13:39;6.80;;;2.50;;
8861;SDS011;4799;50.996;4.754;2022-09-09T08:16:10;6.60;;;2.33;;
8861;SDS011;4799;50.996;4.754;2022-09-09T08:18:38;6.93;;;2.50;;
8861;SDS011;4799;50.996;4.754;2022-09-09T08:21:09;7.53;;;2.37;;
8861;SDS011;4799;50.996;4.754;2022-09-09T08:23:42;7.93;;;2.50;;
8861;SDS011;4799;50.996;4.754;2022-09-09T08:26:20;6.40;;;2.40;;
8861;SDS011;4799;50.996;4.754;2022-09-09T08:28:49;5.70;;;2.40;;
8861;SDS011;4799;50.996;4.754;2022-09-09T08:31:20;6.80;;;2.67;;
8861;SDS011;4799;50.996;4.754;2022-09-09T08:33:51;7.67;;;2.20;;
8861;SDS011;4799;50.996;4.754;2022-09-09T08:36:18;6.33;;;2.40;;
8861;SDS011;4799;50.996;4.754;2022-09-09T08:38:49;5.57;;;2.23;;
8861;SDS011;4799;50.996;4.754;2022-09-09T08:46:55;9.10;;;2.40;;
8861;SDS011;4799;50.996;4.754;2022-09-09T08:52:31;4.73;;;2.00;;
8861;SDS011;4799;50.996;4.754;2022-09-09T09:11:53;5.60;;;1.97;;
8861;SDS011;4799;50.996;4.754;2022-09-09T09:14:26;4.83;;;2.27;;
8861;SDS011;4799;50.996;4.754;2022-09-09T09:17:15;7.53;;;2.50;;
8861;SDS011;4799;50.996;4.754;2022-09-09T09:19:44;5.53;;;1.90;;
8861;SDS011;4799;50.996;4.754;2022-09-09T09:24:59;5.27;;;2.03;;
8861;SDS011;4799;50.996;4.754;2022-09-09T09:30:18;7.33;;;1.97;;
8861;SDS011;4799;50.996;4.754;2022-09-09T09:32:51;7.37;;;2.10;;
8861;SDS011;4799;50.996;4.754;2022-09-09T09:35:18;5.87;;;2.17;;
8861;SDS011;4799;50.996;4.754;2022-09-09T09:37:44;5.90;;;2.47;;
8861;SDS011;4799;50.996;4.754;2022-09-09T09:40:14;5.83;;;2.33;;
8861;SDS011;4799;50.996;4.754;2022-09-09T09:42:49;5.57;;;1.97;;
8861;SDS011;4799;50.996;4.754;2022-09-09T09:45:28;8.10;;;2.30;;
8861;SDS011;4799;50.996;4.754;2022-09-09T09:48:03;5.97;;;2.27;;
8861;SDS011;4799;50.996;4.754;2022-09-09T09:50:31;6.57;;;2.10;;
8861;SDS011;4799;50.996;4.754;2022-09-09T09:52:58;6.67;;;2.23;;
8861;SDS011;4799;50.996;4.754;2022-09-09T09:55:27;4.80;;;2.13;;
8861;SDS011;4799;50.996;4.754;2022-09-09T09:58:03;5.57;;;2.50;;
8861;SDS011;4799;50.996;4.754;2022-09-09T10:00:30;5.77;;;2.00;;
8861;SDS011;4799;50.996;4.754;2022-09-09T10:02:59;5.93;;;2.20;;
8861;SDS011;4799;50.996;4.754;2022-09-09T10:05:26;6.13;;;2.40;;
8861;SDS011;4799;50.996;4.754;2022-09-09T10:10:53;7.10;;;2.20;;
8861;SDS011;4799;50.996;4.754;2022-09-09T10:13:38;6.60;;;2.40;;
8861;SDS011;4799;50.996;4.754;2022-09-09T10:16:31;5.27;;;2.60;;
8861;SDS011;4799;50.996;4.754;2022-09-09T10:19:41;7.30;;;2.57;;
8861;SDS011;4799;50.996;4.754;2022-09-09T10:27:11;6.73;;;2.53;;
8861;SDS011;4799;50.996;4.754;2022-09-09T10:35:52;6.27;;;2.53;;
8861;SDS011;4799;50.996;4.754;2022-09-09T10:39:22;4.97;;;2.50;;
8861;SDS011;4799;50.996;4.754;2022-09-09T10:44:18;5.60;;;2.30;;
8861;SDS011;4799;50.996;4.754;2022-09-09T10:52:41;6.77;;;2.40;;
8861;SDS011;4799;50.996;4.754;2022-09-09T10:55:20;5.60;;;2.27;;
8861;SDS011;4799;50.996;4.754;2022-09-09T10:57:57;5.47;;;2.33;;
8861;SDS011;4799;50.996;4.754;2022-09-09T11:00:27;4.90;;;2.07;;
8861;SDS011;4799;50.996;4.754;2022-09-09T11:03:03;5.80;;;2.40;;
8861;SDS011;4799;50.996;4.754;2022-09-09T11:08:30;4.83;;;1.90;;
8861;SDS011;4799;50.996;4.754;2022-09-09T11:11:03;3.93;;;1.97;;
8861;SDS011;4799;50.996;4.754;2022-09-09T11:13:38;4.27;;;2.07;;
8861;SDS011;4799;50.996;4.754;2022-09-09T11:16:29;4.40;;;2.00;;
8861;SDS011;4799;50.996;4.754;2022-09-09T11:19:03;4.43;;;1.80;;
8861;SDS011;4799;50.996;4.754;2022-09-09T11:21:46;4.77;;;2.07;;
8861;SDS011;4799;50.996;4.754;2022-09-09T11:31:13;6.07;;;2.17;;
8861;SDS011;4799;50.996;4.754;2022-09-09T11:36:38;5.23;;;2.10;;
8861;SDS011;4799;50.996;4.754;2022-09-09T11:42:05;4.53;;;1.90;;
8861;SDS011;4799;50.996;4.754;2022-09-09T11:44:40;4.47;;;2.10;;
8861;SDS011;4799;50.996;4.754;2022-09-09T11:52:41;4.07;;;1.73;;
8861;SDS011;4799;50.996;4.754;2022-09-09T11:55:26;4.10;;;1.70;;
8861;SDS011;4799;50.996;4.754;2022-09-09T12:00:44;4.70;;;1.53;;
8861;SDS011;4799;50.996;4.754;2022-09-09T12:08:53;4.33;;;1.70;;
8861;SDS011;4799;50.996;4.754;2022-09-09T12:11:27;2.83;;;1.40;;
8861;SDS011;4799;50.996;4.754;2022-09-09T12:13:55;3.10;;;1.53;;
8861;SDS011;4799;50.996;4.754;2022-09-09T12:16:35;5.10;;;1.50;;
8861;SDS011;4799;50.996;4.754;2022-09-09T12:19:13;3.53;;;1.53;;
8861;SDS011;4799;50.996;4.754;2022-09-09T12:24:45;2.97;;;1.40;;
8861;SDS011;4799;50.996;4.754;2022-09-09T12:27:28;4.70;;;1.40;;
8861;SDS011;4799;50.996;4.754;2022-09-09T12:32:34;3.83;;;1.30;;
8861;SDS011;4799;50.996;4.754;2022-09-09T12:35:02;3.47;;;1.43;;
8861;SDS011;4799;50.996;4.754;2022-09-09T12:40:31;3.07;;;1.50;;
8861;SDS011;4799;50.996;4.754;2022-09-09T12:43:00;3.13;;;1.60;;
8861;SDS011;4799;50.996;4.754;2022-09-09T12:45:28;3.33;;;1.47;;
8861;SDS011;4799;50.996;4.754;2022-09-09T12:48:00;4.10;;;1.50;;
8861;SDS011;4799;50.996;4.754;2022-09-09T12:50:31;4.40;;;1.50;;
8861;SDS011;4799;50.996;4.754;2022-09-09T12:53:07;3.33;;;1.40;;
8861;SDS011;4799;50.996;4.754;2022-09-09T12:58:28;3.47;;;1.60;;
8861;SDS011;4799;50.996;4.754;2022-09-09T13:00:58;4.43;;;1.40;;
8861;SDS011;4799;50.996;4.754;2022-09-09T13:03:25;3.90;;;1.47;;
8861;SDS011;4799;50.996;4.754;2022-09-09T13:05:52;5.57;;;1.43;;
8861;SDS011;4799;50.996;4.754;2022-09-09T13:08:23;3.50;;;1.60;;
8861;SDS011;4799;50.996;4.754;2022-09-09T13:10:50;5.13;;;1.30;;
8861;SDS011;4799;50.996;4.754;2022-09-09T13:13:27;3.07;;;1.70;;
8861;SDS011;4799;50.996;4.754;2022-09-09T13:16:04;3.13;;;1.43;;
8861;SDS011;4799;50.996;4.754;2022-09-09T13:18:34;2.73;;;1.43;;
8861;SDS011;4799;50.996;4.754;2022-09-09T13:21:01;6.83;;;1.80;;
8861;SDS011;4799;50.996;4.754;2022-09-09T13:23:35;3.47;;;1.40;;
8861;SDS011;4799;50.996;4.754;2022-09-09T13:26:06;4.50;;;1.90;;
8861;SDS011;4799;50.996;4.754;2022-09-09T13:28:49;4.63;;;1.37;;
8861;SDS011;4799;50.996;4.754;2022-09-09T13:31:20;3.90;;;1.40;;
8861;SDS011;4799;50.996;4.754;2022-09-09T13:33:58;2.80;;;1.30;;
8861;SDS011;4799;50.996;4.754;2022-09-09T13:36:28;2.90;;;1.40;;
8861;SDS011;4799;50.996;4.754;2022-09-09T13:38:56;3.70;;;1.40;;
8861;SDS011;4799;50.996;4.754;2022-09-09T13:44:22;3.13;;;1.20;;
8861;SDS011;4799;50.996;4.754;2022-09-09T13:49:28;3.57;;;1.30;;
8861;SDS011;4799;50.996;4.754;2022-09-09T13:52:05;3.60;;;1.50;;
8861;SDS011;4799;50.996;4.754;2022-09-09T13:54:38;2.80;;;1.30;;
8861;SDS011;4799;50.996;4.754;2022-09-09T13:57:05;2.87;;;1.50;;
8861;SDS011;4799;50.996;4.754;2022-09-09T13:59:38;2.90;;;1.20;;
8861;SDS011;4799;50.996;4.754;2022-09-09T14:02:04;7.87;;;3.43;;
8861;SDS011;4799;50.996;4.754;2022-09-09T14:04:30;3.07;;;1.90;;
8861;SDS011;4799;50.996;4.754;2022-09-09T14:06:56;3.27;;;1.53;;
8861;SDS011;4799;50.996;4.754;2022-09-09T14:09:21;3.10;;;1.40;;
8861;SDS011;4799;50.996;4.754;2022-09-09T14:11:47;2.30;;;1.40;;
8861;SDS011;4799;50.996;4.754;2022-09-09T14:14:13;2.67;;;1.10;;
8861;SDS011;4799;50.996;4.754;2022-09-09T14:16:39;2.00;;;1.37;;
8861;SDS011;4799;50.996;4.754;2022-09-09T14:19:05;2.20;;;1.30;;
8861;SDS011;4799;50.996;4.754;2022-09-09T14:21:30;2.73;;;1.27;;
8861;SDS011;4799;50.996;4.754;2022-09-09T14:23:57;2.80;;;1.50;;
8861;SDS011;4799;50.996;4.754;2022-09-09T14:26:23;2.50;;;1.23;;
8861;SDS011;4799;50.996;4.754;2022-09-09T14:28:50;2.50;;;1.37;;
8861;SDS011;4799;50.996;4.754;2022-09-09T14:31:16;3.10;;;1.63;;
8861;SDS011;4799;50.996;4.754;2022-09-09T14:33:43;2.57;;;1.30;;
8861;SDS011;4799;50.996;4.754;2022-09-09T14:36:09;1.70;;;1.20;;
8861;SDS011;4799;50.996;4.754;2022-09-09T14:38:36;2.97;;;1.30;;
8861;SDS011;4799;50.996;4.754;2022-09-09T14:41:06;3.33;;;1.30;;
8861;SDS011;4799;50.996;4.754;2022-09-09T14:43:39;3.07;;;1.33;;
8861;SDS011;4799;50.996;4.754;2022-09-09T14:46:09;2.87;;;1.20;;
8861;SDS011;4799;50.996;4.754;2022-09-09T14:48:36;1.90;;;1.13;;
8861;SDS011;4799;50.996;4.754;2022-09-09T14:51:08;4.13;;;1.30;;
8861;SDS011;4799;50.996;4.754;2022-09-09T14:53:40;2.93;;;1.50;;
8861;SDS011;4799;50.996;4.754;2022-09-09T14:56:07;2.70;;;1.20;;
8861;SDS011;4799;50.996;4.754;2022-09-09T14:58:35;2.60;;;1.17;;
8861;SDS011;4799;50.996;4.754;2022-09-09T15:01:07;3.40;;;1.33;;
8861;SDS011;4799;50.996;4.754;2022-09-09T15:03:35;2.40;;;1.30;;
8861;SDS011;4799;50.996;4.754;2022-09-09T15:06:12;4.13;;;1.30;;
8861;SDS011;4799;50.996;4.754;2022-09-09T15:08:41;4.27;;;1.60;;
8861;SDS011;4799;50.996;4.754;2022-09-09T15:11:08;4.00;;;1.40;;
8861;SDS011;4799;50.996;4.754;2022-09-09T15:13:35;3.13;;;1.40;;
8861;SDS011;4799;50.996;4.754;2022-09-09T15:16:08;3.10;;;1.60;;
8861;SDS011;4799;50.996;4.754;2022-09-09T15:18:35;3.43;;;1.50;;
8861;SDS011;4799;50.996;4.754;2022-09-09T15:21:04;1.93;;;1.33;;
8861;SDS011;4799;50.996;4.754;2022-09-09T15:23:34;3.73;;;1.70;;
8861;SDS011;4799;50.996;4.754;2022-09-09T15:26:01;4.13;;;1.40;;
8861;SDS011;4799;50.996;4.754;2022-09-09T15:28:28;2.87;;;1.57;;
8861;SDS011;4799;50.996;4.754;2022-09-09T15:30:54;3.23;;;1.20;;
8861;SDS011;4799;50.996;4.754;2022-09-09T15:33:21;3.20;;;1.60;;
8861;SDS011;4799;50.996;4.754;2022-09-09T15:35:47;2.80;;;1.30;;
8861;SDS011;4799;50.996;4.754;2022-09-09T15:38:15;3.20;;;1.50;;
8861;SDS011;4799;50.996;4.754;2022-09-09T15:40:42;2.93;;;1.43;;
8861;SDS011;4799;50.996;4.754;2022-09-09T15:43:08;2.80;;;1.30;;
8861;SDS011;4799;50.996;4.754;2022-09-09T15:45:36;3.90;;;1.33;;
8861;SDS011;4799;50.996;4.754;2022-09-09T15:48:02;3.03;;;1.30;;
8861;SDS011;4799;50.996;4.754;2022-09-09T15:50:29;3.00;;;1.27;;
8861;SDS011;4799;50.996;4.754;2022-09-09T15:52:58;3.50;;;1.50;;
8861;SDS011;4799;50.996;4.754;2022-09-09T15:55:24;3.20;;;1.37;;
8861;SDS011;4799;50.996;4.754;2022-09-09T15:57:50;2.67;;;1.30;;
8861;SDS011;4799;50.996;4.754;2022-09-09T16:00:18;2.93;;;1.50;;
8861;SDS011;4799;50.996;4.754;2022-09-09T16:02:44;1.90;;;1.30;;
8861;SDS011;4799;50.996;4.754;2022-09-09T16:05:14;3.67;;;1.40;;
8861;SDS011;4799;50.996;4.754;2022-09-09T16:07:40;3.70;;;1.20;;
8861;SDS011;4799;50.996;4.754;2022-09-09T16:10:08;4.63;;;1.50;;
8861;SDS011;4799;50.996;4.754;2022-09-09T16:12:34;2.23;;;1.00;;
8861;SDS011;4799;50.996;4.754;2022-09-09T16:15:00;1.13;;;0.90;;
8861;SDS011;4799;50.996;4.754;2022-09-09T16:17:26;1.37;;;0.80;;
8861;SDS011;4799;50.996;4.754;2022-09-09T16:19:52;1.43;;;0.83;;
8861;SDS011;4799;50.996;4.754;2022-09-09T16:22:19;1.90;;;1.00;;
8861;SDS011;4799;50.996;4.754;2022-09-09T16:24:45;2.47;;;1.00;;
8861;SDS011;4799;50.996;4.754;2022-09-09T16:27:10;2.20;;;1.00;;
8861;SDS011;4799;50.996;4.754;2022-09-09T16:29:36;2.17;;;1.00;;
8861;SDS011;4799;50.996;4.754;2022-09-09T16:32:05;1.97;;;1.00;;
8861;SDS011;4799;50.996;4.754;2022-09-09T16:34:38;1.33;;;1.00;;
8861;SDS011;4799;50.996;4.754;2022-09-09T16:37:03;1.90;;;1.00;;
8861;SDS011;4799;50.996;4.754;2022-09-09T16:39:29;3.00;;;1.03;;
8861;SDS011;4799;50.996;4.754;2022-09-09T16:41:55;1.83;;;1.00;;
8861;SDS011;4799;50.996;4.754;2022-09-09T16:44:22;1.93;;;1.10;;
8861;SDS011;4799;50.996;4.754;2022-09-09T16:46:48;1.97;;;1.00;;
8861;SDS011;4799;50.996;4.754;2022-09-09T16:49:16;2.50;;;1.20;;
8861;SDS011;4799;50.996;4.754;2022-09-09T16:51:51;2.10;;;1.30;;
8861;SDS011;4799;50.996;4.754;2022-09-09T16:54:19;3.40;;;1.60;;
8861;SDS011;4799;50.996;4.754;2022-09-09T16:56:47;2.37;;;1.33;;
8861;SDS011;4799;50.996;4.754;2022-09-09T16:59:20;3.03;;;1.47;;
8861;SDS011;4799;50.996;4.754;2022-09-09T17:01:47;3.33;;;1.60;;
8861;SDS011;4799;50.996;4.754;2022-09-09T17:04:15;2.60;;;1.57;;
8861;SDS011;4799;50.996;4.754;2022-09-09T17:06:48;4.83;;;1.90;;
8861;SDS011;4799;50.996;4.754;2022-09-09T17:09:15;4.67;;;1.63;;
8861;SDS011;4799;50.996;4.754;2022-09-09T17:11:41;4.37;;;1.70;;
8861;SDS011;4799;50.996;4.754;2022-09-09T17:14:07;3.47;;;2.00;;
8861;SDS011;4799;50.996;4.754;2022-09-09T17:16:36;2.93;;;1.90;;
8861;SDS011;4799;50.996;4.754;2022-09-09T17:19:04;2.90;;;1.60;;
8861;SDS011;4799;50.996;4.754;2022-09-09T17:21:31;3.70;;;1.60;;
8861;SDS011;4799;50.996;4.754;2022-09-09T17:23:57;8.70;;;2.40;;
8861;SDS011;4799;50.996;4.754;2022-09-09T17:26:25;3.50;;;1.73;;
8861;SDS011;4799;50.996;4.754;2022-09-09T17:28:53;3.00;;;1.60;;
8861;SDS011;4799;50.996;4.754;2022-09-09T17:31:21;3.00;;;1.60;;
8861;SDS011;4799;50.996;4.754;2022-09-09T17:33:48;3.23;;;1.90;;
8861;SDS011;4799;50.996;4.754;2022-09-09T17:36:16;2.60;;;1.60;;
8861;SDS011;4799;50.996;4.754;2022-09-09T17:38:44;4.83;;;1.80;;
8861;SDS011;4799;50.996;4.754;2022-09-09T17:43:46;3.37;;;2.20;;
8861;SDS011;4799;50.996;4.754;2022-09-09T17:46:23;2.73;;;1.70;;
8861;SDS011;4799;50.996;4.754;2022-09-09T17:48:58;3.23;;;1.73;;
8861;SDS011;4799;50.996;4.754;2022-09-09T17:51:25;2.33;;;1.30;;
8861;SDS011;4799;50.996;4.754;2022-09-09T17:53:55;3.03;;;1.40;;
8861;SDS011;4799;50.996;4.754;2022-09-09T17:56:23;2.07;;;1.50;;
8861;SDS011;4799;50.996;4.754;2022-09-09T17:58:50;2.97;;;1.50;;
8861;SDS011;4799;50.996;4.754;2022-09-09T18:03:45;2.83;;;1.60;;